Time;durP1;ratioP1;P1;durP2;ratioP2;P2;SDS_P1;SDS_P2;PMS_P1;PMS_P2;Temp;Humidity;BMP_temperature;BMP_pressure;BME280_temperature;BME280_humidity;BME280_pressure;Samples;Min_cycle;Max_cycle;Signal;HPM_P1;HPM_P2
2021/05/20 00:02:16;;;;;;;1.02;0.88;;;14.60;97.30;;;;;;5053738;28;20021;-77
2021/05/20 00:04:42;;;;;;;1.27;0.80;;;14.60;97.30;;;;;;5053514;28;20422;-77
2021/05/20 00:07:08;;;;;;;0.95;0.93;;;14.60;97.40;;;;;;5053613;28;20021;-78
2021/05/20 00:09:34;;;;;;;1.15;1.05;;;14.70;97.30;;;;;;5053716;28;20052;-77
2021/05/20 00:12:00;;;;;;;1.90;1.35;;;14.70;97.20;;;;;;5053570;28;20025;-76
2021/05/20 00:14:27;;;;;;;0.95;0.95;;;14.70;97.10;;;;;;5054098;28;20025;-76
2021/05/20 00:16:54;;;;;;;1.17;1.00;;;14.70;97.10;;;;;;5053504;28;20029;-77
2021/05/20 00:19:20;;;;;;;1.00;1.00;;;14.70;97.10;;;;;;5048494;28;20029;-84
2021/05/20 00:21:46;;;;;;;0.82;0.82;;;14.70;97.10;;;;;;5052093;28;20115;-78
2021/05/20 00:24:11;;;;;;;1.40;1.17;;;14.60;97.10;;;;;;5053421;28;20518;-77
2021/05/20 00:26:37;;;;;;;0.90;0.90;;;14.60;97.10;;;;;;5052045;28;20429;-82
2021/05/20 00:29:03;;;;;;;1.10;1.10;;;14.70;97.10;;;;;;5052055;28;20390;-77
2021/05/20 00:31:29;;;;;;;0.80;0.80;;;14.80;96.90;;;;;;5055177;28;20026;-77
2021/05/20 00:33:54;;;;;;;1.00;0.90;;;14.80;97.00;;;;;;5057771;28;20018;-80
2021/05/20 00:36:20;;;;;;;1.52;1.40;;;14.80;97.30;;;;;;5057667;28;20078;-77
2021/05/20 00:38:46;;;;;;;1.70;1.60;;;14.80;96.90;;;;;;5057562;28;20429;-78
2021/05/20 00:41:11;;;;;;;1.25;1.10;;;14.80;96.80;;;;;;5057215;28;20096;-77
2021/05/20 00:43:40;;;;;;;1.40;1.30;;;14.90;97.00;;;;;;5055774;28;20029;-77
2021/05/20 00:46:06;;;;;;;1.10;1.10;;;14.90;96.70;;;;;;5057073;28;20052;-76
2021/05/20 00:48:32;;;;;;;2.15;1.10;;;14.90;96.50;;;;;;5056995;28;20053;-77
2021/05/20 00:50:58;;;;;;;1.00;1.00;;;14.80;96.50;;;;;;5057012;28;20053;-84
2021/05/20 00:53:24;;;;;;;2.08;1.30;;;14.80;96.40;;;;;;5057092;28;20017;-89
2021/05/20 00:55:51;;;;;;;2.30;1.30;;;14.80;96.30;;;;;;5056970;28;20021;-79
2021/05/20 00:58:17;;;;;;;1.50;1.40;;;14.80;96.40;;;;;;5056805;28;20028;-79
2021/05/20 01:00:43;;;;;;;1.05;1.05;;;14.80;96.50;;;;;;5056943;28;20049;-79
2021/05/20 01:03:10;;;;;;;1.20;1.10;;;14.80;96.60;;;;;;5055441;28;20433;-77
2021/05/20 01:05:35;;;;;;;1.50;1.40;;;14.80;96.40;;;;;;5055370;28;20074;-80
2021/05/20 01:08:01;;;;;;;1.40;1.30;;;14.80;96.40;;;;;;5056753;28;20033;-78
2021/05/20 01:10:27;;;;;;;4.05;1.48;;;14.70;96.40;;;;;;5044626;28;20081;-83
2021/05/20 01:12:52;;;;;;;2.97;1.50;;;14.80;96.30;;;;;;5018961;28;20041;-79
2021/05/20 01:15:24;;;;;;;2.05;1.40;;;14.80;96.10;;;;;;5018984;28;20463;-77
2021/05/20 01:17:54;;;;;;;1.20;1.20;;;14.70;96.20;;;;;;5020478;28;20053;-77
2021/05/20 01:20:22;;;;;;;2.45;1.30;;;14.60;96.30;;;;;;5056719;28;20028;-78
2021/05/20 01:22:48;;;;;;;2.38;1.50;;;14.60;96.40;;;;;;5056710;28;20021;-78
2021/05/20 01:25:14;;;;;;;1.70;1.30;;;14.70;96.30;;;;;;5038395;28;20104;-77
2021/05/20 01:27:42;;;;;;;1.15;1.05;;;14.70;96.40;;;;;;5038516;28;20449;-79
2021/05/20 01:30:09;;;;;;;1.65;1.55;;;14.60;96.40;;;;;;5038486;28;20024;-87
2021/05/20 01:32:36;;;;;;;1.38;1.27;;;14.60;96.50;;;;;;5038450;28;20017;-80
2021/05/20 01:35:03;;;;;;;2.65;1.50;;;14.60;96.70;;;;;;5038416;28;20068;-81
2021/05/20 01:37:28;;;;;;;1.48;1.38;;;14.50;96.80;;;;;;5038430;28;20021;-81
2021/05/20 01:39:54;;;;;;;1.38;1.27;;;14.40;97.00;;;;;;5056123;28;20028;-79
2021/05/20 01:42:20;;;;;;;1.17;1.17;;;14.40;97.20;;;;;;5037648;28;20029;-78
2021/05/20 01:44:46;;;;;;;2.15;1.17;;;14.30;97.40;;;;;;5056101;28;20021;-84
2021/05/20 01:47:11;;;;;;;1.83;1.70;;;14.20;97.40;;;;;;5038096;28;20033;-82
2021/05/20 01:49:37;;;;;;;1.77;1.67;;;14.20;97.50;;;;;;5020141;28;20390;-77
2021/05/20 01:52:03;;;;;;;2.03;1.50;;;14.20;97.50;;;;;;5051289;28;20433;-76
2021/05/20 01:54:28;;;;;;;2.28;2.08;;;14.20;97.60;;;;;;5035871;28;20431;-85
2021/05/20 01:56:54;;;;;;;45.47;23.52;;;14.20;97.60;;;;;;5017886;28;20025;-77
2021/05/20 01:59:20;;;;;;;25.08;15.30;;;14.20;97.60;;;;;;5036044;28;20021;-78
2021/05/20 02:01:45;;;;;;;16.27;14.57;;;14.10;97.60;;;;;;5051220;28;20021;-84
2021/05/20 02:04:11;;;;;;;29.33;26.27;;;14.10;97.50;;;;;;5018098;28;20040;-79
2021/05/20 02:06:37;;;;;;;15.85;14.25;;;14.10;97.50;;;;;;5051917;28;20037;-78
2021/05/20 02:09:05;;;;;;;11.55;9.18;;;14.10;97.50;;;;;;5036064;28;20031;-80
2021/05/20 02:11:30;;;;;;;5.82;4.38;;;14.00;97.60;;;;;;5054798;28;20124;-77
2021/05/20 02:13:56;;;;;;;2.90;2.70;;;14.10;97.60;;;;;;5055776;28;20158;-81
2021/05/20 02:16:22;;;;;;;1.88;1.75;;;14.10;97.60;;;;;;5055405;28;20036;-77
2021/05/20 02:18:47;;;;;;;2.40;1.65;;;14.10;97.40;;;;;;5033837;28;20052;-77
2021/05/20 02:21:13;;;;;;;2.13;1.92;;;14.10;97.50;;;;;;5054772;28;20029;-76
2021/05/20 02:23:39;;;;;;;1.90;1.60;;;14.10;97.50;;;;;;5054741;28;20096;-77
2021/05/20 02:26:05;;;;;;;2.08;1.88;;;14.10;97.60;;;;;;5037960;28;20424;-75
2021/05/20 02:28:30;;;;;;;1.95;1.85;;;14.10;97.60;;;;;;5054331;28;20360;-77
2021/05/20 02:30:56;;;;;;;4.20;2.00;;;14.10;97.70;;;;;;5054462;28;20017;-75
2021/05/20 02:33:22;;;;;;;1.40;1.30;;;14.10;97.60;;;;;;5037004;28;20116;-78
2021/05/20 02:35:47;;;;;;;2.00;1.80;;;14.10;97.70;;;;;;5055395;28;20509;-77
2021/05/20 02:38:13;;;;;;;1.65;1.55;;;14.10;97.70;;;;;;5036917;28;20145;-80
2021/05/20 02:40:39;;;;;;;1.85;1.75;;;14.10;97.60;;;;;;5055349;28;20371;-76
2021/05/20 02:43:04;;;;;;;2.53;1.80;;;14.10;97.50;;;;;;5036771;28;20410;-79
2021/05/20 02:45:30;;;;;;;2.40;1.90;;;14.10;97.50;;;;;;5036773;28;20039;-80
2021/05/20 02:47:56;;;;;;;1.77;1.67;;;14.10;97.50;;;;;;5054464;28;20060;-79
2021/05/20 02:50:23;;;;;;;2.22;1.40;;;14.10;97.60;;;;;;5054769;28;20078;-77
2021/05/20 02:52:49;;;;;;;2.00;1.80;;;14.10;97.60;;;;;;5036742;28;20108;-77
2021/05/20 02:55:17;;;;;;;1.60;1.50;;;14.20;97.50;;;;;;5053906;28;20677;-77
2021/05/20 02:57:49;;;;;;;2.10;1.88;;;14.20;97.50;;;;;;5054677;28;20021;-82
2021/05/20 03:00:18;;;;;;;3.67;1.83;;;14.20;97.20;;;;;;5036624;28;20025;-84
2021/05/20 03:02:44;;;;;;;1.90;1.80;;;14.30;97.00;;;;;;5036774;28;20437;-77
2021/05/20 03:05:10;;;;;;;2.53;1.58;;;14.20;96.90;;;;;;5036192;28;20074;-84
2021/05/20 03:07:36;;;;;;;3.38;1.80;;;14.20;96.90;;;;;;5036476;28;20020;-76
2021/05/20 03:10:04;;;;;;;2.10;1.90;;;14.20;97.00;;;;;;5054352;28;20065;-76
2021/05/20 03:12:29;;;;;;;2.25;1.80;;;14.20;96.90;;;;;;5036477;28;20052;-88
2021/05/20 03:14:55;;;;;;;2.03;1.83;;;14.20;96.90;;;;;;5036217;28;20055;-77
2021/05/20 03:17:21;;;;;;;2.30;2.10;;;14.10;97.00;;;;;;5053848;28;20021;-76
2021/05/20 03:19:47;;;;;;;2.20;2.10;;;14.00;97.30;;;;;;5035898;28;20391;-76
2021/05/20 03:22:13;;;;;;;3.67;2.20;;;14.00;97.40;;;;;;5054110;28;20021;-75
2021/05/20 03:24:38;;;;;;;2.13;2.03;;;13.90;97.50;;;;;;5054509;28;20021;-76
2021/05/20 03:27:04;;;;;;;2.67;1.83;;;13.90;97.70;;;;;;5053923;28;20017;-82
2021/05/20 03:29:30;;;;;;;2.42;2.15;;;13.90;97.70;;;;;;5035924;28;20029;-76
2021/05/20 03:31:55;;;;;;;2.10;2.00;;;14.00;97.60;;;;;;5036155;28;20025;-76
2021/05/20 03:34:21;;;;;;;2.50;2.30;;;14.00;97.70;;;;;;5036275;28;20035;-76
2021/05/20 03:36:47;;;;;;;3.05;2.05;;;14.00;97.50;;;;;;5053648;28;20021;-76
2021/05/20 03:39:13;;;;;;;2.30;2.10;;;14.10;97.50;;;;;;5054371;28;20036;-76
2021/05/20 03:41:39;;;;;;;2.35;1.98;;;14.10;97.40;;;;;;5035596;28;20474;-77
2021/05/20 03:44:05;;;;;;;2.33;2.10;;;14.10;97.40;;;;;;5053765;28;20113;-78
2021/05/20 03:46:30;;;;;;;2.30;2.10;;;14.20;97.20;;;;;;5035756;28;20025;-78
2021/05/20 03:48:56;;;;;;;1.90;1.80;;;14.20;97.20;;;;;;5052616;28;20077;-79
2021/05/20 03:51:22;;;;;;;1.85;1.75;;;14.20;97.10;;;;;;5073486;28;20493;-83
2021/05/20 03:53:48;;;;;;;4.72;2.40;;;14.30;97.20;;;;;;5066209;28;20501;-83
2021/05/20 03:56:14;;;;;;;3.15;1.88;;;14.30;97.00;;;;;;5044859;28;20098;-77
2021/05/20 03:58:39;;;;;;;2.38;1.95;;;14.40;97.00;;;;;;5062799;28;20471;-85
2021/05/20 04:01:05;;;;;;;2.33;1.92;;;14.40;97.00;;;;;;5053474;28;20033;-86
2021/05/20 04:03:32;;;;;;;2.33;1.88;;;14.50;96.70;;;;;;5035310;28;20032;-78
2021/05/20 04:06:00;;;;;;;1.85;1.75;;;14.50;96.60;;;;;;5035425;28;20063;-82
2021/05/20 04:08:26;;;;;;;2.33;2.13;;;14.50;96.50;;;;;;5053546;28;20024;-75
2021/05/20 04:10:52;;;;;;;2.17;1.98;;;14.50;96.50;;;;;;5053057;28;20244;-75
2021/05/20 04:13:39;;;;;;;2.15;1.90;;;14.60;96.50;;;;;;5053621;28;20083;-80
2021/05/20 04:16:06;;;;;;;1.85;1.75;;;14.60;96.20;;;;;;5037191;28;20029;-76
2021/05/20 04:18:32;;;;;;;1.92;1.83;;;14.60;96.20;;;;;;5064421;28;20082;-76
2021/05/20 04:21:01;;;;;;;2.17;2.08;;;14.70;96.20;;;;;;5065110;28;20029;-79
2021/05/20 04:23:28;;;;;;;2.53;2.17;;;14.70;95.80;;;;;;5035612;28;20429;-81
2021/05/20 04:25:54;;;;;;;2.00;1.90;;;14.70;95.50;;;;;;5053303;28;20068;-74
2021/05/20 04:28:20;;;;;;;2.55;1.75;;;14.70;95.50;;;;;;5053515;28;20040;-78
2021/05/20 04:30:47;;;;;;;4.70;2.17;;;14.60;95.70;;;;;;5053095;28;20025;-75
2021/05/20 04:33:12;;;;;;;2.85;1.88;;;14.70;95.70;;;;;;5053843;28;20336;-76
2021/05/20 04:35:38;;;;;;;2.20;1.80;;;14.70;95.50;;;;;;5036935;28;20083;-74
2021/05/20 04:38:05;;;;;;;4.57;2.25;;;14.70;95.40;;;;;;5035729;28;20048;-75
2021/05/20 04:40:32;;;;;;;2.45;2.13;;;14.60;95.40;;;;;;5053208;28;20356;-76
2021/05/20 04:42:58;;;;;;;3.42;2.47;;;14.70;95.40;;;;;;5034985;28;20033;-75
2021/05/20 04:45:24;;;;;;;7.20;2.78;;;14.70;95.50;;;;;;5035317;28;20029;-79
2021/05/20 04:47:49;;;;;;;5.00;2.88;;;14.70;95.20;;;;;;5053098;28;20035;-77
2021/05/20 04:50:16;;;;;;;3.65;2.40;;;14.70;95.40;;;;;;5035983;28;20032;-79
2021/05/20 04:52:43;;;;;;;3.40;2.85;;;14.80;95.00;;;;;;5035240;28;20033;-80
2021/05/20 04:55:10;;;;;;;4.20;2.30;;;14.80;94.90;;;;;;5052891;28;20092;-80
2021/05/20 04:57:36;;;;;;;2.58;2.38;;;14.80;94.70;;;;;;5052534;28;20029;-83
2021/05/20 05:00:04;;;;;;;4.38;2.70;;;14.90;94.70;;;;;;5053306;28;20028;-85
2021/05/20 05:02:30;;;;;;;2.83;2.63;;;14.90;94.60;;;;;;5053567;28;20494;-82
2021/05/20 05:04:56;;;;;;;3.10;2.38;;;14.90;94.40;;;;;;5053410;28;20467;-76
2021/05/20 05:07:22;;;;;;;2.30;2.17;;;14.90;94.40;;;;;;5052848;28;20029;-84
2021/05/20 05:09:48;;;;;;;2.67;1.90;;;14.90;94.40;;;;;;5034716;28;20049;-75
2021/05/20 05:12:14;;;;;;;7.43;4.85;;;14.90;94.50;;;;;;5034619;28;20032;-87
2021/05/20 05:14:40;;;;;;;4.22;3.70;;;14.90;94.30;;;;;;5052634;28;20029;-74
2021/05/20 05:17:05;;;;;;;2.53;2.33;;;15.00;94.00;;;;;;5052285;28;20386;-74
2021/05/20 05:19:31;;;;;;;3.45;2.15;;;15.00;93.90;;;;;;5055544;28;20096;-77
2021/05/20 05:22:00;;;;;;;2.55;2.20;;;14.90;94.10;;;;;;5056110;28;20104;-77
2021/05/20 05:24:26;;;;;;;1.95;1.85;;;14.90;94.00;;;;;;5055873;28;20021;-75
2021/05/20 05:26:52;;;;;;;3.13;1.85;;;14.90;94.20;;;;;;5055947;28;20108;-77
2021/05/20 05:29:18;;;;;;;4.93;2.75;;;14.90;94.10;;;;;;5055826;28;20032;-80
2021/05/20 05:31:43;;;;;;;7.32;5.43;;;14.90;94.00;;;;;;5044546;28;20028;-84
2021/05/20 05:34:09;;;;;;;3.17;2.88;;;14.90;94.10;;;;;;5058484;28;20025;-74
2021/05/20 05:36:35;;;;;;;2.28;2.08;;;14.90;94.10;;;;;;5075785;28;20730;-90
2021/05/20 05:39:00;;;;;;;2.50;2.00;;;14.90;94.20;;;;;;5075637;28;20089;-82
2021/05/20 05:41:26;;;;;;;2.97;2.03;;;14.90;94.10;;;;;;5058280;28;20036;-84
2021/05/20 05:43:51;;;;;;;2.70;2.30;;;15.00;93.60;;;;;;5058155;28;20032;-77
2021/05/20 05:46:17;;;;;;;3.97;2.45;;;15.00;93.90;;;;;;5058415;28;20107;-81
2021/05/20 05:48:46;;;;;;;3.00;2.00;;;15.00;93.80;;;;;;5075599;28;20485;-76
2021/05/20 05:51:14;;;;;;;2.42;2.08;;;15.00;93.80;;;;;;5076109;28;20386;-76
2021/05/20 05:53:39;;;;;;;3.80;2.08;;;15.10;93.60;;;;;;5075980;28;20028;-75
2021/05/20 05:56:05;;;;;;;3.17;1.85;;;15.20;93.60;;;;;;5076342;28;20017;-78
2021/05/20 05:58:31;;;;;;;2.30;2.10;;;15.20;93.20;;;;;;5057905;28;20056;-76
2021/05/20 06:00:57;;;;;;;41.70;33.20;;;15.30;93.20;;;;;;5074877;28;20029;-82
2021/05/20 06:03:24;;;;;;;6.05;5.03;;;15.40;93.30;;;;;;5058041;28;20033;-84
2021/05/20 06:05:50;;;;;;;2.55;2.15;;;15.50;93.10;;;;;;5057803;28;20115;-87
2021/05/20 06:08:16;;;;;;;2.60;2.13;;;15.60;92.70;;;;;;5057912;28;20055;-86
2021/05/20 06:10:42;;;;;;;2.00;1.90;;;15.70;92.70;;;;;;5057597;28;20082;-77
2021/05/20 06:13:07;;;;;;;2.20;2.00;;;15.70;92.40;;;;;;5075625;28;20020;-77
2021/05/20 06:15:33;;;;;;;3.28;1.67;;;15.80;92.50;;;;;;5076141;28;20544;-80
2021/05/20 06:17:59;;;;;;;2.17;1.80;;;15.90;92.40;;;;;;5056972;28;20455;-79
2021/05/20 06:20:24;;;;;;;2.97;1.67;;;15.90;92.40;;;;;;5075521;28;20025;-76
2021/05/20 06:22:51;;;;;;;2.50;1.70;;;16.00;92.30;;;;;;5057487;28;20024;-75
2021/05/20 06:25:16;;;;;;;2.35;1.80;;;16.00;92.00;;;;;;5075429;28;20021;-82
2021/05/20 06:27:42;;;;;;;2.72;1.98;;;16.00;91.90;;;;;;5075413;28;20031;-77
2021/05/20 06:30:08;;;;;;;3.53;1.90;;;16.00;92.00;;;;;;5056936;28;20025;-79
2021/05/20 06:32:36;;;;;;;2.05;1.95;;;15.90;92.50;;;;;;5057132;28;20386;-85
2021/05/20 06:35:02;;;;;;;4.88;2.40;;;16.10;92.30;;;;;;5075081;28;20016;-83
2021/05/20 06:37:27;;;;;;;2.63;2.03;;;16.30;91.40;;;;;;5057191;28;20154;-90
2021/05/20 06:39:53;;;;;;;2.30;2.10;;;16.40;91.20;;;;;;5075312;28;20060;-79
2021/05/20 06:42:19;;;;;;;3.33;2.33;;;16.50;91.40;;;;;;5057224;28;20074;-76
2021/05/20 06:44:44;;;;;;;2.53;2.20;;;16.50;91.10;;;;;;5075644;28;20021;-80
2021/05/20 06:47:10;;;;;;;1.80;1.70;;;16.60;90.90;;;;;;5073864;28;20035;-82
2021/05/20 06:49:36;;;;;;;6.95;5.07;;;16.60;90.80;;;;;;5074741;28;20544;-89
2021/05/20 06:52:02;;;;;;;3.25;2.03;;;16.60;90.60;;;;;;5057335;28;20033;-79
2021/05/20 06:54:27;;;;;;;2.13;1.60;;;16.60;90.70;;;;;;5056775;28;20462;-74
2021/05/20 06:56:57;;;;;;;2.20;1.63;;;16.60;90.50;;;;;;5075214;28;20099;-78
2021/05/20 07:02:08;;;;;;;1.98;1.77;;;16.60;90.00;;;;;;5074906;28;20108;-75
2021/05/20 07:04:33;;;;;;;1.77;1.67;;;16.60;90.00;;;;;;5074624;28;20111;-82
2021/05/20 07:07:02;;;;;;;3.47;1.52;;;16.60;90.00;;;;;;5074896;28;20039;-79
2021/05/20 07:09:33;;;;;;;1.70;1.60;;;16.70;89.60;;;;;;5056663;28;20521;-79
2021/05/20 07:12:00;;;;;;;1.80;1.70;;;16.70;89.50;;;;;;5056375;28;20124;-75
2021/05/20 07:14:26;;;;;;;1.50;1.40;;;16.70;89.70;;;;;;5073958;28;20020;-78
2021/05/20 07:16:52;;;;;;;2.55;1.67;;;16.70;89.10;;;;;;5073350;28;20024;-85
2021/05/20 07:19:21;;;;;;;5.60;1.95;;;16.70;89.00;;;;;;5074222;28;20024;-78
2021/05/20 07:21:48;;;;;;;4.47;1.77;;;16.70;89.30;;;;;;5074129;28;20112;-78
2021/05/20 07:24:14;;;;;;;1.98;1.73;;;16.70;89.00;;;;;;5055836;28;20273;-83
2021/05/20 07:26:40;;;;;;;2.00;1.67;;;16.80;87.90;;;;;;5074208;28;20459;-84
2021/05/20 07:29:06;;;;;;;1.55;1.45;;;16.80;88.20;;;;;;5056108;28;20031;-78
2021/05/20 07:31:32;;;;;;;1.70;1.60;;;16.80;88.20;;;;;;5056028;28;20029;-76
2021/05/20 07:33:58;;;;;;;3.22;1.42;;;16.90;87.00;;;;;;5073885;28;20033;-85
2021/05/20 07:36:24;;;;;;;1.73;1.50;;;16.90;87.50;;;;;;5055827;28;20378;-78
2021/05/20 07:38:50;;;;;;;1.75;1.40;;;17.00;87.00;;;;;;5056015;28;20781;-82
2021/05/20 07:41:17;;;;;;;2.13;1.60;;;17.10;86.60;;;;;;5073209;28;20107;-84
2021/05/20 07:43:43;;;;;;;2.35;1.38;;;17.20;85.50;;;;;;5072474;28;20024;-75
2021/05/20 07:46:10;;;;;;;1.90;1.48;;;17.20;86.10;;;;;;5055612;28;20459;-78
2021/05/20 07:48:36;;;;;;;1.40;1.30;;;17.20;86.20;;;;;;5055554;28;20433;-81
2021/05/20 07:51:03;;;;;;;1.33;1.23;;;17.30;86.60;;;;;;5055541;28;20024;-77
2021/05/20 07:53:29;;;;;;;1.38;1.25;;;17.40;86.10;;;;;;5073740;28;20481;-74
2021/05/20 07:55:54;;;;;;;1.55;1.40;;;17.50;85.50;;;;;;5055736;28;20036;-77
2021/05/20 07:58:20;;;;;;;1.67;1.55;;;17.60;84.00;;;;;;5055516;28;20029;-77
2021/05/20 08:00:46;;;;;;;1.63;1.52;;;17.60;82.70;;;;;;5073389;28;20052;-76
2021/05/20 08:10:57;;;;;;;1.17;1.17;;;17.80;81.10;;;;;;5073399;28;20485;-78
2021/05/20 08:13:23;;;;;;;1.42;1.30;;;17.80;82.00;;;;;;5072903;28;20027;-76
2021/05/20 08:15:49;;;;;;;1.60;1.20;;;17.80;81.50;;;;;;5055511;28;20123;-77
2021/05/20 08:18:15;;;;;;;2.00;1.33;;;18.00;81.80;;;;;;5073562;28;20032;-76
2021/05/20 08:20:41;;;;;;;1.83;1.40;;;18.10;80.90;;;;;;5055574;28;20481;-81
2021/05/20 08:23:07;;;;;;;40.25;30.20;;;18.10;81.10;;;;;;5055444;28;20032;-83
2021/05/20 08:25:32;;;;;;;8.13;5.78;;;18.20;81.30;;;;;;5055477;28;20121;-77
2021/05/20 08:27:58;;;;;;;2.28;2.05;;;18.30;81.10;;;;;;5055414;28;20492;-78
2021/05/20 08:30:24;;;;;;;2.92;1.58;;;18.30;80.50;;;;;;5073447;28;20024;-77
2021/05/20 08:32:50;;;;;;;4.35;1.77;;;18.40;80.30;;;;;;5055405;28;20023;-77
2021/05/20 08:35:16;;;;;;;3.30;1.52;;;18.60;80.90;;;;;;5055326;28;20488;-74
2021/05/20 08:37:42;;;;;;;2.15;1.33;;;18.80;78.90;;;;;;5055380;28;20025;-75
2021/05/20 08:40:10;;;;;;;1.38;1.38;;;18.90;77.10;;;;;;5073431;28;20512;-77
2021/05/20 08:42:36;;;;;;;1.70;1.60;;;19.00;75.90;;;;;;5055391;28;20029;-80
2021/05/20 08:45:27;;;;;;;3.75;1.40;;;19.00;76.80;;;;;;5072155;28;20040;-80
2021/05/20 08:47:54;;;;;;;1.65;1.50;;;19.00;78.10;;;;;;5055170;28;20060;-77
2021/05/20 08:50:22;;;;;;;1.40;1.30;;;19.00;77.00;;;;;;5056105;28;20021;-79
2021/05/20 08:52:49;;;;;;;2.10;1.38;;;19.00;77.40;;;;;;5073880;28;20466;-80
2021/05/20 08:55:21;;;;;;;1.23;1.20;;;19.10;76.00;;;;;;5058897;28;20124;-83
2021/05/20 08:57:47;;;;;;;1.60;1.50;;;19.00;74.00;;;;;;5059090;28;20078;-80
2021/05/20 09:00:18;;;;;;;3.03;1.33;;;19.00;73.80;;;;;;5059027;28;20020;-79
2021/05/20 09:02:44;;;;;;;3.53;1.50;;;18.90;75.10;;;;;;5076119;28;20052;-90
2021/05/20 09:05:17;;;;;;;2.78;1.60;;;18.90;75.60;;;;;;5077206;28;20032;-84
2021/05/20 09:07:44;;;;;;;2.03;1.60;;;18.90;76.30;;;;;;5076812;28;20020;-83
2021/05/20 09:10:19;;;;;;;1.40;1.30;;;18.90;76.30;;;;;;5076806;28;20041;-80
2021/05/20 09:12:46;;;;;;;1.73;1.63;;;18.90;75.40;;;;;;5057917;28;20025;-82
2021/05/20 09:15:13;;;;;;;3.03;1.50;;;19.00;74.80;;;;;;5036485;28;20031;-82
2021/05/20 09:17:39;;;;;;;1.65;1.55;;;19.00;74.10;;;;;;5036919;28;20420;-82
2021/05/20 09:20:05;;;;;;;2.38;1.75;;;19.10;73.10;;;;;;5035315;28;20053;-86
2021/05/20 09:22:31;;;;;;;1.30;1.30;;;19.20;72.50;;;;;;5036100;28;20029;-78
2021/05/20 09:24:59;;;;;;;1.95;1.40;;;19.20;71.60;;;;;;5036250;28;20037;-78
2021/05/20 09:27:34;;;;;;;1.73;1.58;;;19.30;71.90;;;;;;5035938;28;20423;-78
2021/05/20 09:30:10;;;;;;;1.70;1.60;;;19.30;71.20;;;;;;5018603;28;20084;-80
2021/05/20 09:32:39;;;;;;;17.75;13.13;;;19.30;72.20;;;;;;5036022;28;20026;-81
2021/05/20 09:35:05;;;;;;;5.15;4.65;;;19.30;72.40;;;;;;5028601;28;20111;-84
2021/05/20 09:37:33;;;;;;;2.83;2.22;;;19.20;72.50;;;;;;5058526;28;20493;-87
2021/05/20 09:40:01;;;;;;;1.60;1.50;;;19.20;73.30;;;;;;5058401;28;20021;-81
2021/05/20 09:42:30;;;;;;;4.55;1.80;;;19.30;74.40;;;;;;5058497;28;20082;-77
2021/05/20 09:45:05;;;;;;;2.20;1.57;;;19.40;74.30;;;;;;5075482;28;20044;-78
2021/05/20 09:47:31;;;;;;;1.88;1.77;;;19.50;72.80;;;;;;5075807;28;20488;-78
2021/05/20 09:50:01;;;;;;;1.92;1.75;;;19.50;72.10;;;;;;5074039;28;20060;-76
2021/05/20 09:52:27;;;;;;;;;;;19.60;71.90;;;;;;5075765;28;20044;-73
2021/05/20 09:54:53;;;;;;;1.60;1.50;;;19.60;73.00;;;;;;5057508;28;19932;-75
2021/05/20 09:57:26;;;;;;;1.85;1.60;;;19.60;73.40;;;;;;5075212;28;20024;-73
2021/05/20 10:00:01;;;;;;;1.60;1.50;;;19.70;72.20;;;;;;5075048;28;20028;-76
2021/05/20 10:02:27;;;;;;;1.65;1.55;;;19.60;70.60;;;;;;5074770;28;20021;-76
2021/05/20 10:04:53;;;;;;;2.75;1.70;;;19.60;71.80;;;;;;5074443;28;20115;-77
2021/05/20 10:07:30;;;;;;;1.77;1.67;;;19.60;72.50;;;;;;5075214;28;20474;-73
2021/05/20 10:09:56;;;;;;;2.00;1.75;;;19.60;71.50;;;;;;5074420;28;20067;-75
2021/05/20 10:12:23;;;;;;;1.50;1.50;;;19.70;71.90;;;;;;5075643;28;20025;-72
2021/05/20 10:14:49;;;;;;;6.45;5.78;;;19.60;71.40;;;;;;5075517;28;20020;-80
2021/05/20 10:17:18;;;;;;;3.40;2.70;;;19.50;70.50;;;;;;5057641;28;20024;-77
2021/05/20 10:19:45;;;;;;;1.80;1.70;;;19.60;70.70;;;;;;5056744;28;20111;-83
2021/05/20 10:22:14;;;;;;;1.60;1.45;;;19.70;69.50;;;;;;5075388;28;20026;-79
2021/05/20 10:24:41;;;;;;;3.08;1.95;;;19.90;70.60;;;;;;5057338;28;20115;-79
2021/05/20 10:27:10;;;;;;;1.83;1.70;;;20.10;70.20;;;;;;5057503;28;20020;-76
2021/05/20 10:29:36;;;;;;;2.03;1.80;;;20.20;69.30;;;;;;5075091;28;20100;-77
2021/05/20 10:32:03;;;;;;;2.47;2.25;;;20.40;69.70;;;;;;5075232;28;20474;-76
2021/05/20 10:34:29;;;;;;;1.30;1.20;;;20.50;68.90;;;;;;5055654;28;20059;-77
2021/05/20 10:36:59;;;;;;;3.67;1.70;;;20.50;67.70;;;;;;5075198;28;20048;-79
2021/05/20 10:39:26;;;;;;;2.10;1.70;;;20.60;66.50;;;;;;5057287;28;20447;-81
2021/05/20 10:41:52;;;;;;;3.83;1.80;;;20.50;66.10;;;;;;5075247;28;20031;-79
2021/05/20 10:44:19;;;;;;;2.22;1.63;;;20.60;66.40;;;;;;5075126;28;20024;-85
2021/05/20 10:46:57;;;;;;;2.10;1.65;;;20.70;64.30;;;;;;5075196;28;20481;-83
2021/05/20 10:49:45;;;;;;;2.45;1.77;;;20.80;64.20;;;;;;5057132;28;20478;-81
2021/05/20 10:52:38;;;;;;;1.70;1.60;;;20.80;64.70;;;;;;5057336;28;20028;-79
2021/05/20 10:55:12;;;;;;;3.05;1.67;;;20.80;64.50;;;;;;5057071;28;20058;-82
2021/05/20 10:57:59;;;;;;;2.00;1.70;;;20.90;63.90;;;;;;5056943;28;20367;-82
2021/05/20 11:00:30;;;;;;;1.48;1.38;;;20.90;63.80;;;;;;5074691;28;20024;-77
2021/05/20 11:02:58;;;;;;;2.05;1.52;;;21.00;64.40;;;;;;5056957;28;20108;-78
2021/05/20 11:05:43;;;;;;;2.00;1.50;;;21.10;64.80;;;;;;5055755;28;20025;-83
2021/05/20 11:08:27;;;;;;;2.78;1.45;;;21.30;63.60;;;;;;5074875;28;20020;-84
2021/05/20 11:10:53;;;;;;;1.50;1.40;;;21.30;63.10;;;;;;5056786;28;20045;-80
2021/05/20 11:13:45;;;;;;;1.90;1.60;;;21.30;65.00;;;;;;5056341;28;20068;-78
2021/05/20 11:16:13;;;;;;;1.88;1.50;;;21.30;63.60;;;;;;5073398;28;20378;-80
2021/05/20 11:18:38;;;;;;;1.70;1.60;;;21.40;63.90;;;;;;5056359;28;20074;-79
2021/05/20 11:21:04;;;;;;;1.70;1.60;;;21.40;63.00;;;;;;5074238;28;20433;-85
2021/05/20 11:23:31;;;;;;;1.67;1.50;;;21.30;63.80;;;;;;5056247;28;20028;-82
2021/05/20 11:26:10;;;;;;;1.92;1.70;;;21.20;65.10;;;;;;5074559;28;20526;-79
2021/05/20 11:28:47;;;;;;;4.03;1.70;;;21.30;63.80;;;;;;5056153;28;20039;-76
2021/05/20 11:31:15;;;;;;;2.00;1.90;;;21.30;63.80;;;;;;5054871;28;20028;-84
2021/05/20 11:33:53;;;;;;;2.25;1.60;;;21.20;64.70;;;;;;5056153;28;20017;-82
2021/05/20 11:36:20;;;;;;;4.38;1.63;;;21.20;64.40;;;;;;5074279;28;20066;-75
2021/05/20 11:38:53;;;;;;;1.77;1.67;;;21.20;62.20;;;;;;5044498;28;20028;-81
2021/05/20 11:41:19;;;;;;;1.55;1.45;;;21.20;62.00;;;;;;5052147;28;20025;-78
2021/05/20 11:43:45;;;;;;;1.85;1.45;;;21.20;61.60;;;;;;5055722;28;20082;-75
2021/05/20 11:46:24;;;;;;;2.35;1.50;;;21.20;61.00;;;;;;5074523;28;20393;-80
2021/05/20 11:49:00;;;;;;;2.53;1.80;;;21.20;61.80;;;;;;5055881;28;20048;-81
2021/05/20 11:51:46;;;;;;;1.58;1.38;;;21.10;61.30;;;;;;5073815;28;20544;-81
2021/05/20 11:54:17;;;;;;;2.20;1.60;;;21.00;62.20;;;;;;5055816;28;20043;-84
2021/05/20 11:56:45;;;;;;;1.85;1.17;;;21.10;63.60;;;;;;5055911;28;20024;-78
2021/05/20 11:59:11;;;;;;;1.83;1.30;;;21.50;63.70;;;;;;5072946;28;20016;-83
2021/05/20 12:01:37;;;;;;;1.60;1.50;;;22.00;62.10;;;;;;5072544;28;20038;-80
2021/05/20 12:04:05;;;;;;;2.33;1.40;;;22.50;61.10;;;;;;5055846;28;20486;-81
2021/05/20 12:06:31;;;;;;;1.88;1.73;;;23.10;61.00;;;;;;5055856;28;20063;-82
2021/05/20 12:09:12;;;;;;;1.73;1.50;;;24.00;58.30;;;;;;5073872;28;20108;-82
2021/05/20 12:11:38;;;;;;;1.70;1.60;;;24.60;55.10;;;;;;5073657;28;20044;-80
2021/05/20 12:14:23;;;;;;;3.60;1.80;;;24.50;54.40;;;;;;5055656;28;20024;-80
2021/05/20 12:17:10;;;;;;;1.92;1.83;;;24.30;53.70;;;;;;5073675;28;20115;-81
2021/05/20 12:19:36;;;;;;;2.00;1.90;;;23.70;54.50;;;;;;5073547;28;20074;-77
2021/05/20 12:22:05;;;;;;;2.65;1.75;;;23.30;54.80;;;;;;5073581;28;20028;-81
2021/05/20 12:24:33;;;;;;;1.70;1.60;;;23.00;54.90;;;;;;5055561;28;20031;-79
2021/05/20 12:27:10;;;;;;;1.70;1.60;;;22.70;55.10;;;;;;5056392;28;20527;-80
2021/05/20 12:29:39;;;;;;;1.65;1.50;;;22.40;56.10;;;;;;5077491;28;20059;-80
2021/05/20 12:32:05;;;;;;;;;;;22.30;57.60;;;;;;5076394;28;20028;-78
2021/05/20 12:34:32;;;;;;;1.85;1.50;;;22.50;58.60;;;;;;5059631;28;19908;-77
2021/05/20 12:37:08;;;;;;;1.92;1.58;;;22.80;57.90;;;;;;5077967;28;20062;-78
2021/05/20 12:39:34;;;;;;;1.95;1.67;;;23.10;57.00;;;;;;5077429;28;20025;-79
2021/05/20 12:41:59;;;;;;;3.50;1.85;;;23.10;56.60;;;;;;5077718;28;20481;-80
2021/05/20 12:44:25;;;;;;;1.60;1.50;;;22.90;56.00;;;;;;5077092;28;20378;-79
2021/05/20 12:46:51;;;;;;;1.50;1.40;;;22.60;56.50;;;;;;5059454;28;20028;-81
2021/05/20 12:49:22;;;;;;;3.30;1.70;;;22.30;57.70;;;;;;5077219;28;20074;-82
2021/05/20 12:52:00;;;;;;;3.03;1.40;;;22.10;58.90;;;;;;5077111;28;20044;-79
2021/05/20 12:54:29;;;;;;;2.97;2.00;;;21.90;60.00;;;;;;5059217;28;20066;-82
2021/05/20 12:57:07;;;;;;;2.03;1.88;;;21.80;60.80;;;;;;5077352;28;20040;-78
2021/05/20 12:59:38;;;;;;;2.08;1.80;;;21.80;62.00;;;;;;5076990;28;20044;-78
2021/05/20 13:02:17;;;;;;;2.33;1.80;;;21.90;63.00;;;;;;5076435;28;20022;-81